sensor_id;sensor_type;location;lat;lon;timestamp;temperature;humidity
20735;DHT22;10528;52.124;5.196;2023-03-07T00:00:15;6.50;99.90
20735;DHT22;10528;52.124;5.196;2023-03-07T00:02:42;6.50;99.90
20735;DHT22;10528;52.124;5.196;2023-03-07T00:05:09;6.50;99.90
20735;DHT22;10528;52.124;5.196;2023-03-07T00:07:35;6.40;99.90
20735;DHT22;10528;52.124;5.196;2023-03-07T00:10:03;6.30;99.90
20735;DHT22;10528;52.124;5.196;2023-03-07T00:12:30;6.40;99.90
20735;DHT22;10528;52.124;5.196;2023-03-07T00:14:57;6.40;99.90
20735;DHT22;10528;52.124;5.196;2023-03-07T00:17:23;6.50;99.90
20735;DHT22;10528;52.124;5.196;2023-03-07T00:19:50;6.40;99.90
20735;DHT22;10528;52.124;5.196;2023-03-07T00:22:17;6.50;99.90
20735;DHT22;10528;52.124;5.196;2023-03-07T00:24:47;6.50;99.90
20735;DHT22;10528;52.124;5.196;2023-03-07T00:27:14;6.40;99.90
20735;DHT22;10528;52.124;5.196;2023-03-07T00:29:41;6.40;99.90
20735;DHT22;10528;52.124;5.196;2023-03-07T00:32:08;6.40;99.90
20735;DHT22;10528;52.124;5.196;2023-03-07T00:34:34;6.50;99.90
20735;DHT22;10528;52.124;5.196;2023-03-07T00:37:01;6.50;99.90
20735;DHT22;10528;52.124;5.196;2023-03-07T00:39:28;6.50;99.90
20735;DHT22;10528;52.124;5.196;2023-03-07T00:41:55;6.60;99.90
20735;DHT22;10528;52.124;5.196;2023-03-07T00:44:22;6.50;99.90
20735;DHT22;10528;52.124;5.196;2023-03-07T00:46:50;6.40;99.90
20735;DHT22;10528;52.124;5.196;2023-03-07T00:49:17;6.40;99.90
20735;DHT22;10528;52.124;5.196;2023-03-07T00:51:46;6.40;99.90
20735;DHT22;10528;52.124;5.196;2023-03-07T00:54:13;6.40;99.90
20735;DHT22;10528;52.124;5.196;2023-03-07T00:56:40;6.50;99.90
20735;DHT22;10528;52.124;5.196;2023-03-07T00:59:08;6.60;99.90
20735;DHT22;10528;52.124;5.196;2023-03-07T01:01:35;6.40;99.90
20735;DHT22;10528;52.124;5.196;2023-03-07T01:04:03;6.40;99.90
20735;DHT22;10528;52.124;5.196;2023-03-07T01:06:31;6.30;99.90
20735;DHT22;10528;52.124;5.196;2023-03-07T01:09:02;6.50;99.90
20735;DHT22;10528;52.124;5.196;2023-03-07T01:11:31;6.30;99.90
20735;DHT22;10528;52.124;5.196;2023-03-07T01:14:02;6.30;99.90
20735;DHT22;10528;52.124;5.196;2023-03-07T01:16:35;6.30;99.90
20735;DHT22;10528;52.124;5.196;2023-03-07T01:19:06;6.20;99.90
20735;DHT22;10528;52.124;5.196;2023-03-07T01:21:38;6.20;99.90
20735;DHT22;10528;52.124;5.196;2023-03-07T01:24:09;6.20;99.90
20735;DHT22;10528;52.124;5.196;2023-03-07T01:26:38;6.10;99.90
20735;DHT22;10528;52.124;5.196;2023-03-07T01:29:06;6.10;99.90
20735;DHT22;10528;52.124;5.196;2023-03-07T01:31:35;6.10;99.90
20735;DHT22;10528;52.124;5.196;2023-03-07T01:34:03;6.00;99.90
20735;DHT22;10528;52.124;5.196;2023-03-07T01:36:34;6.00;99.90
20735;DHT22;10528;52.124;5.196;2023-03-07T01:39:10;6.00;99.90
20735;DHT22;10528;52.124;5.196;2023-03-07T01:41:45;5.90;99.90
20735;DHT22;10528;52.124;5.196;2023-03-07T01:44:22;5.90;99.90
20735;DHT22;10528;52.124;5.196;2023-03-07T01:46:56;5.90;99.90
20735;DHT22;10528;52.124;5.196;2023-03-07T01:49:38;5.90;99.90
20735;DHT22;10528;52.124;5.196;2023-03-07T01:52:11;5.80;99.90
20735;DHT22;10528;52.124;5.196;2023-03-07T01:54:49;5.90;99.90
20735;DHT22;10528;52.124;5.196;2023-03-07T01:57:23;5.90;99.90
20735;DHT22;10528;52.124;5.196;2023-03-07T01:59:55;5.90;99.90
20735;DHT22;10528;52.124;5.196;2023-03-07T02:02:25;5.90;99.90
20735;DHT22;10528;52.124;5.196;2023-03-07T02:08:01;5.90;99.90
20735;DHT22;10528;52.124;5.196;2023-03-07T02:10:32;5.90;99.90
20735;DHT22;10528;52.124;5.196;2023-03-07T02:13:02;5.90;99.90
20735;DHT22;10528;52.124;5.196;2023-03-07T02:15:29;5.90;99.90
20735;DHT22;10528;52.124;5.196;2023-03-07T02:17:59;5.90;99.90
20735;DHT22;10528;52.124;5.196;2023-03-07T02:23:02;5.90;99.90
20735;DHT22;10528;52.124;5.196;2023-03-07T02:25:44;5.90;99.90
20735;DHT22;10528;52.124;5.196;2023-03-07T02:28:19;5.90;99.90
20735;DHT22;10528;52.124;5.196;2023-03-07T02:31:01;6.00;99.90
20735;DHT22;10528;52.124;5.196;2023-03-07T02:33:33;6.00;99.90
20735;DHT22;10528;52.124;5.196;2023-03-07T02:36:07;6.00;99.90
20735;DHT22;10528;52.124;5.196;2023-03-07T02:38:43;6.00;99.90
20735;DHT22;10528;52.124;5.196;2023-03-07T02:41:14;5.90;99.90
20735;DHT22;10528;52.124;5.196;2023-03-07T02:43:45;5.90;99.90
20735;DHT22;10528;52.124;5.196;2023-03-07T02:46:12;5.90;99.90
20735;DHT22;10528;52.124;5.196;2023-03-07T02:48:39;5.90;99.90
20735;DHT22;10528;52.124;5.196;2023-03-07T02:51:06;5.90;99.90
20735;DHT22;10528;52.124;5.196;2023-03-07T02:53:33;5.90;99.90
20735;DHT22;10528;52.124;5.196;2023-03-07T02:56:00;6.00;99.90
20735;DHT22;10528;52.124;5.196;2023-03-07T02:58:27;5.90;99.90
20735;DHT22;10528;52.124;5.196;2023-03-07T03:00:54;6.00;99.90
20735;DHT22;10528;52.124;5.196;2023-03-07T03:03:21;6.00;99.90
20735;DHT22;10528;52.124;5.196;2023-03-07T03:05:48;6.00;99.90
20735;DHT22;10528;52.124;5.196;2023-03-07T03:08:15;6.00;99.90
20735;DHT22;10528;52.124;5.196;2023-03-07T03:10:42;6.00;99.90
20735;DHT22;10528;52.124;5.196;2023-03-07T03:13:10;5.90;99.90
20735;DHT22;10528;52.124;5.196;2023-03-07T03:15:39;6.00;99.90
20735;DHT22;10528;52.124;5.196;2023-03-07T03:18:05;6.00;99.90
20735;DHT22;10528;52.124;5.196;2023-03-07T03:20:32;5.90;99.90
20735;DHT22;10528;52.124;5.196;2023-03-07T03:22:59;5.90;99.90
20735;DHT22;10528;52.124;5.196;2023-03-07T03:25:26;6.00;99.90
20735;DHT22;10528;52.124;5.196;2023-03-07T03:27:53;5.90;99.90
20735;DHT22;10528;52.124;5.196;2023-03-07T03:30:20;5.90;99.90
20735;DHT22;10528;52.124;5.196;2023-03-07T03:32:47;5.90;99.90
20735;DHT22;10528;52.124;5.196;2023-03-07T03:35:16;5.90;99.90
20735;DHT22;10528;52.124;5.196;2023-03-07T03:37:44;6.00;99.90
20735;DHT22;10528;52.124;5.196;2023-03-07T03:40:11;6.00;99.90
20735;DHT22;10528;52.124;5.196;2023-03-07T03:42:44;6.00;99.90
20735;DHT22;10528;52.124;5.196;2023-03-07T03:45:13;6.00;99.90
20735;DHT22;10528;52.124;5.196;2023-03-07T03:47:42;6.00;99.90
20735;DHT22;10528;52.124;5.196;2023-03-07T03:50:09;6.00;99.90
20735;DHT22;10528;52.124;5.196;2023-03-07T03:52:37;6.00;99.90
20735;DHT22;10528;52.124;5.196;2023-03-07T03:55:04;6.00;99.90
20735;DHT22;10528;52.124;5.196;2023-03-07T03:57:32;6.00;99.90
20735;DHT22;10528;52.124;5.196;2023-03-07T03:59:58;6.00;99.90
20735;DHT22;10528;52.124;5.196;2023-03-07T04:02:26;6.00;99.90
20735;DHT22;10528;52.124;5.196;2023-03-07T04:04:56;6.00;99.90
20735;DHT22;10528;52.124;5.196;2023-03-07T04:07:23;6.10;99.90
20735;DHT22;10528;52.124;5.196;2023-03-07T04:09:50;6.10;99.90
20735;DHT22;10528;52.124;5.196;2023-03-07T04:12:17;6.10;99.90
20735;DHT22;10528;52.124;5.196;2023-03-07T04:14:44;6.00;99.90
20735;DHT22;10528;52.124;5.196;2023-03-07T04:17:11;6.00;99.90
20735;DHT22;10528;52.124;5.196;2023-03-07T04:19:38;6.00;99.90
20735;DHT22;10528;52.124;5.196;2023-03-07T04:22:06;6.00;99.90
20735;DHT22;10528;52.124;5.196;2023-03-07T04:24:33;6.00;99.90
20735;DHT22;10528;52.124;5.196;2023-03-07T04:27:00;5.90;99.90
20735;DHT22;10528;52.124;5.196;2023-03-07T04:29:27;5.90;99.90
20735;DHT22;10528;52.124;5.196;2023-03-07T04:32:04;5.80;99.90
20735;DHT22;10528;52.124;5.196;2023-03-07T04:34:31;5.80;99.90
20735;DHT22;10528;52.124;5.196;2023-03-07T04:36:58;5.70;99.90
20735;DHT22;10528;52.124;5.196;2023-03-07T04:39:25;5.70;99.90
20735;DHT22;10528;52.124;5.196;2023-03-07T04:41:52;5.70;99.90
20735;DHT22;10528;52.124;5.196;2023-03-07T04:44:21;5.70;99.90
20735;DHT22;10528;52.124;5.196;2023-03-07T04:46:47;5.80;99.90
20735;DHT22;10528;52.124;5.196;2023-03-07T04:49:15;5.70;99.90
20735;DHT22;10528;52.124;5.196;2023-03-07T04:51:42;5.70;99.90
20735;DHT22;10528;52.124;5.196;2023-03-07T04:54:11;5.70;99.90
20735;DHT22;10528;52.124;5.196;2023-03-07T04:56:38;5.60;99.90
20735;DHT22;10528;52.124;5.196;2023-03-07T04:59:08;5.70;99.90
20735;DHT22;10528;52.124;5.196;2023-03-07T05:01:34;5.60;99.90
20735;DHT22;10528;52.124;5.196;2023-03-07T05:04:01;5.60;99.90
20735;DHT22;10528;52.124;5.196;2023-03-07T05:06:28;5.60;99.90
20735;DHT22;10528;52.124;5.196;2023-03-07T05:08:55;5.40;99.90
20735;DHT22;10528;52.124;5.196;2023-03-07T05:11:22;5.50;99.90
20735;DHT22;10528;52.124;5.196;2023-03-07T05:13:50;5.30;99.90
20735;DHT22;10528;52.124;5.196;2023-03-07T05:16:20;5.40;99.90
20735;DHT22;10528;52.124;5.196;2023-03-07T05:18:47;5.40;99.90
20735;DHT22;10528;52.124;5.196;2023-03-07T05:21:14;5.30;99.90
20735;DHT22;10528;52.124;5.196;2023-03-07T05:23:41;5.30;99.90
20735;DHT22;10528;52.124;5.196;2023-03-07T05:26:10;5.30;99.90
20735;DHT22;10528;52.124;5.196;2023-03-07T05:28:37;5.20;99.90
20735;DHT22;10528;52.124;5.196;2023-03-07T05:31:04;5.30;99.90
20735;DHT22;10528;52.124;5.196;2023-03-07T05:33:31;5.20;99.90
20735;DHT22;10528;52.124;5.196;2023-03-07T05:35:59;5.10;99.90
20735;DHT22;10528;52.124;5.196;2023-03-07T05:38:28;5.10;99.90
20735;DHT22;10528;52.124;5.196;2023-03-07T05:40:55;5.10;99.90
20735;DHT22;10528;52.124;5.196;2023-03-07T05:43:22;5.00;99.90
20735;DHT22;10528;52.124;5.196;2023-03-07T05:45:50;4.90;99.90
20735;DHT22;10528;52.124;5.196;2023-03-07T05:48:18;4.80;99.90
20735;DHT22;10528;52.124;5.196;2023-03-07T05:50:45;4.90;99.90
20735;DHT22;10528;52.124;5.196;2023-03-07T05:53:12;4.70;99.90
20735;DHT22;10528;52.124;5.196;2023-03-07T05:55:39;4.70;99.90
20735;DHT22;10528;52.124;5.196;2023-03-07T05:58:06;4.70;99.90
20735;DHT22;10528;52.124;5.196;2023-03-07T06:00:33;4.60;99.90
20735;DHT22;10528;52.124;5.196;2023-03-07T06:03:03;4.60;99.90
20735;DHT22;10528;52.124;5.196;2023-03-07T06:05:31;4.50;99.90
20735;DHT22;10528;52.124;5.196;2023-03-07T06:07:58;4.50;99.90
20735;DHT22;10528;52.124;5.196;2023-03-07T06:10:25;4.30;99.90
20735;DHT22;10528;52.124;5.196;2023-03-07T06:12:52;4.20;99.90
20735;DHT22;10528;52.124;5.196;2023-03-07T06:15:21;4.10;99.90
20735;DHT22;10528;52.124;5.196;2023-03-07T06:17:55;4.20;99.90
20735;DHT22;10528;52.124;5.196;2023-03-07T06:20:23;4.10;99.90
20735;DHT22;10528;52.124;5.196;2023-03-07T06:22:52;4.00;99.90
20735;DHT22;10528;52.124;5.196;2023-03-07T06:25:19;4.10;99.90
20735;DHT22;10528;52.124;5.196;2023-03-07T06:27:48;4.10;99.90
20735;DHT22;10528;52.124;5.196;2023-03-07T06:30:16;4.00;99.90
20735;DHT22;10528;52.124;5.196;2023-03-07T06:32:43;4.00;99.90
20735;DHT22;10528;52.124;5.196;2023-03-07T06:35:10;3.90;99.90
20735;DHT22;10528;52.124;5.196;2023-03-07T06:37:37;3.90;99.90
20735;DHT22;10528;52.124;5.196;2023-03-07T06:40:04;3.90;99.90
20735;DHT22;10528;52.124;5.196;2023-03-07T06:42:34;3.90;99.90
20735;DHT22;10528;52.124;5.196;2023-03-07T06:45:03;3.80;99.90
20735;DHT22;10528;52.124;5.196;2023-03-07T06:47:31;3.70;99.90
20735;DHT22;10528;52.124;5.196;2023-03-07T06:49:58;3.70;99.90
20735;DHT22;10528;52.124;5.196;2023-03-07T06:52:25;3.70;99.90
20735;DHT22;10528;52.124;5.196;2023-03-07T06:54:52;3.70;99.90
20735;DHT22;10528;52.124;5.196;2023-03-07T06:57:19;3.60;99.90
20735;DHT22;10528;52.124;5.196;2023-03-07T06:59:46;3.60;99.90
20735;DHT22;10528;52.124;5.196;2023-03-07T07:02:14;3.60;99.90
20735;DHT22;10528;52.124;5.196;2023-03-07T07:04:41;3.60;99.90
20735;DHT22;10528;52.124;5.196;2023-03-07T07:07:08;3.60;99.90
20735;DHT22;10528;52.124;5.196;2023-03-07T07:09:35;3.60;99.90
20735;DHT22;10528;52.124;5.196;2023-03-07T07:12:02;3.60;99.90
20735;DHT22;10528;52.124;5.196;2023-03-07T07:14:32;3.60;99.90
20735;DHT22;10528;52.124;5.196;2023-03-07T07:17:00;3.50;99.90
20735;DHT22;10528;52.124;5.196;2023-03-07T07:19:27;3.40;99.90
20735;DHT22;10528;52.124;5.196;2023-03-07T07:21:54;3.40;99.90
20735;DHT22;10528;52.124;5.196;2023-03-07T07:24:22;3.40;99.90
20735;DHT22;10528;52.124;5.196;2023-03-07T07:26:51;3.40;99.90
20735;DHT22;10528;52.124;5.196;2023-03-07T07:29:18;3.40;99.90
20735;DHT22;10528;52.124;5.196;2023-03-07T07:31:47;3.40;99.90
20735;DHT22;10528;52.124;5.196;2023-03-07T07:34:17;3.40;99.90
20735;DHT22;10528;52.124;5.196;2023-03-07T07:36:44;3.40;99.90
20735;DHT22;10528;52.124;5.196;2023-03-07T07:39:11;3.40;99.90
20735;DHT22;10528;52.124;5.196;2023-03-07T07:41:41;3.40;99.90
20735;DHT22;10528;52.124;5.196;2023-03-07T07:44:10;3.40;99.90
20735;DHT22;10528;52.124;5.196;2023-03-07T07:46:49;3.40;99.90
20735;DHT22;10528;52.124;5.196;2023-03-07T07:49:16;3.40;99.90
20735;DHT22;10528;52.124;5.196;2023-03-07T07:51:44;3.50;99.90
20735;DHT22;10528;52.124;5.196;2023-03-07T07:54:11;3.50;99.90
20735;DHT22;10528;52.124;5.196;2023-03-07T07:56:38;3.50;99.90
20735;DHT22;10528;52.124;5.196;2023-03-07T07:59:06;3.40;99.90
20735;DHT22;10528;52.124;5.196;2023-03-07T08:01:34;3.50;99.90
20735;DHT22;10528;52.124;5.196;2023-03-07T08:04:01;3.50;99.90
20735;DHT22;10528;52.124;5.196;2023-03-07T08:06:27;3.50;99.90
20735;DHT22;10528;52.124;5.196;2023-03-07T08:08:54;3.60;99.90
20735;DHT22;10528;52.124;5.196;2023-03-07T08:11:22;3.70;99.90
20735;DHT22;10528;52.124;5.196;2023-03-07T08:13:49;3.80;99.90
20735;DHT22;10528;52.124;5.196;2023-03-07T08:16:18;3.80;99.90
20735;DHT22;10528;52.124;5.196;2023-03-07T08:18:49;3.70;99.90
20735;DHT22;10528;52.124;5.196;2023-03-07T08:21:18;3.70;99.90
20735;DHT22;10528;52.124;5.196;2023-03-07T08:23:45;3.90;99.90
20735;DHT22;10528;52.124;5.196;2023-03-07T08:26:13;3.80;99.90
20735;DHT22;10528;52.124;5.196;2023-03-07T08:28:41;3.90;99.90
20735;DHT22;10528;52.124;5.196;2023-03-07T08:31:16;4.00;99.90
20735;DHT22;10528;52.124;5.196;2023-03-07T08:33:46;4.00;99.90
20735;DHT22;10528;52.124;5.196;2023-03-07T08:36:13;4.00;99.90
20735;DHT22;10528;52.124;5.196;2023-03-07T08:38:41;4.20;99.90
20735;DHT22;10528;52.124;5.196;2023-03-07T08:41:09;4.20;99.90
20735;DHT22;10528;52.124;5.196;2023-03-07T08:43:36;4.10;99.90
20735;DHT22;10528;52.124;5.196;2023-03-07T08:46:05;4.30;99.90
20735;DHT22;10528;52.124;5.196;2023-03-07T08:48:32;4.20;99.90
20735;DHT22;10528;52.124;5.196;2023-03-07T08:51:07;4.30;99.90
20735;DHT22;10528;52.124;5.196;2023-03-07T08:53:36;4.30;99.90
20735;DHT22;10528;52.124;5.196;2023-03-07T08:56:08;4.30;99.90
20735;DHT22;10528;52.124;5.196;2023-03-07T08:58:37;4.40;99.90
20735;DHT22;10528;52.124;5.196;2023-03-07T09:01:05;4.40;99.90
20735;DHT22;10528;52.124;5.196;2023-03-07T09:03:33;4.50;99.90
20735;DHT22;10528;52.124;5.196;2023-03-07T09:06:02;4.40;99.90
20735;DHT22;10528;52.124;5.196;2023-03-07T09:08:30;4.50;99.90
20735;DHT22;10528;52.124;5.196;2023-03-07T09:11:01;4.50;99.90
20735;DHT22;10528;52.124;5.196;2023-03-07T09:13:30;4.50;99.90
20735;DHT22;10528;52.124;5.196;2023-03-07T09:16:05;4.50;99.90
20735;DHT22;10528;52.124;5.196;2023-03-07T09:18:33;4.60;99.90
20735;DHT22;10528;52.124;5.196;2023-03-07T09:21:05;4.60;99.90
20735;DHT22;10528;52.124;5.196;2023-03-07T09:23:32;4.70;99.90
20735;DHT22;10528;52.124;5.196;2023-03-07T09:26:00;4.60;99.90
20735;DHT22;10528;52.124;5.196;2023-03-07T09:28:28;4.80;99.90
20735;DHT22;10528;52.124;5.196;2023-03-07T09:30:56;4.90;99.90
20735;DHT22;10528;52.124;5.196;2023-03-07T09:33:23;4.90;99.90
20735;DHT22;10528;52.124;5.196;2023-03-07T09:35:50;5.10;99.90
20735;DHT22;10528;52.124;5.196;2023-03-07T09:38:17;5.10;99.90
20735;DHT22;10528;52.124;5.196;2023-03-07T09:40:46;5.00;99.90
20735;DHT22;10528;52.124;5.196;2023-03-07T09:43:19;5.00;99.90
20735;DHT22;10528;52.124;5.196;2023-03-07T09:46:15;5.00;99.90
20735;DHT22;10528;52.124;5.196;2023-03-07T09:51:40;5.00;99.90
20735;DHT22;10528;52.124;5.196;2023-03-07T09:59:30;4.90;99.90
20735;DHT22;10528;52.124;5.196;2023-03-07T10:02:19;5.10;99.90
20735;DHT22;10528;52.124;5.196;2023-03-07T10:07:44;5.00;99.90
20735;DHT22;10528;52.124;5.196;2023-03-07T10:10:19;5.10;99.90
20735;DHT22;10528;52.124;5.196;2023-03-07T10:12:57;5.00;99.90
20735;DHT22;10528;52.124;5.196;2023-03-07T10:15:51;4.90;99.90
20735;DHT22;10528;52.124;5.196;2023-03-07T10:22:00;4.90;99.90
20735;DHT22;10528;52.124;5.196;2023-03-07T10:27:15;5.20;99.90
20735;DHT22;10528;52.124;5.196;2023-03-07T10:29:50;5.10;99.90
20735;DHT22;10528;52.124;5.196;2023-03-07T10:35:15;5.40;99.90
20735;DHT22;10528;52.124;5.196;2023-03-07T10:37:52;5.40;99.90
20735;DHT22;10528;52.124;5.196;2023-03-07T10:40:30;5.70;99.90
20735;DHT22;10528;52.124;5.196;2023-03-07T10:42:59;5.60;99.90
20735;DHT22;10528;52.124;5.196;2023-03-07T10:45:31;5.60;99.90
20735;DHT22;10528;52.124;5.196;2023-03-07T10:48:06;5.60;99.90
20735;DHT22;10528;52.124;5.196;2023-03-07T10:53:55;5.40;99.90
20735;DHT22;10528;52.124;5.196;2023-03-07T10:56:23;5.40;99.90
20735;DHT22;10528;52.124;5.196;2023-03-07T10:59:05;5.40;99.90
20735;DHT22;10528;52.124;5.196;2023-03-07T11:01:38;5.40;99.90
20735;DHT22;10528;52.124;5.196;2023-03-07T11:04:21;5.40;99.90
20735;DHT22;10528;52.124;5.196;2023-03-07T11:12:19;5.20;99.90
20735;DHT22;10528;52.124;5.196;2023-03-07T11:14:48;4.90;99.90
20735;DHT22;10528;52.124;5.196;2023-03-07T11:20:22;5.00;99.90
20735;DHT22;10528;52.124;5.196;2023-03-07T11:23:12;5.10;99.90
20735;DHT22;10528;52.124;5.196;2023-03-07T11:25:43;5.10;99.90
20735;DHT22;10528;52.124;5.196;2023-03-07T11:28:27;5.10;99.90
20735;DHT22;10528;52.124;5.196;2023-03-07T11:36:43;5.10;99.90
20735;DHT22;10528;52.124;5.196;2023-03-07T11:39:21;5.20;99.90
20735;DHT22;10528;52.124;5.196;2023-03-07T11:42:19;5.30;99.90
20735;DHT22;10528;52.124;5.196;2023-03-07T11:44:52;5.30;99.90
20735;DHT22;10528;52.124;5.196;2023-03-07T11:47:54;5.20;99.90
20735;DHT22;10528;52.124;5.196;2023-03-07T11:50:30;5.30;99.90
20735;DHT22;10528;52.124;5.196;2023-03-07T12:04:21;5.10;99.90
20735;DHT22;10528;52.124;5.196;2023-03-07T12:10:20;4.40;99.90
20735;DHT22;10528;52.124;5.196;2023-03-07T12:18:55;4.10;99.90
20735;DHT22;10528;52.124;5.196;2023-03-07T12:24:29;4.20;99.90
20735;DHT22;10528;52.124;5.196;2023-03-07T12:27:17;4.30;99.90
20735;DHT22;10528;52.124;5.196;2023-03-07T12:39:16;4.60;99.90
20735;DHT22;10528;52.124;5.196;2023-03-07T12:47:18;4.50;99.90
20735;DHT22;10528;52.124;5.196;2023-03-07T12:50:08;4.60;99.90
20735;DHT22;10528;52.124;5.196;2023-03-07T12:52:51;4.70;99.90
20735;DHT22;10528;52.124;5.196;2023-03-07T12:55:44;4.70;99.90
20735;DHT22;10528;52.124;5.196;2023-03-07T12:58:39;4.70;99.90
20735;DHT22;10528;52.124;5.196;2023-03-07T13:01:20;4.60;99.90
20735;DHT22;10528;52.124;5.196;2023-03-07T13:06:31;4.80;99.90
20735;DHT22;10528;52.124;5.196;2023-03-07T13:09:00;5.00;99.90
20735;DHT22;10528;52.124;5.196;2023-03-07T13:11:32;5.00;99.90
20735;DHT22;10528;52.124;5.196;2023-03-07T13:14:00;4.90;99.90
20735;DHT22;10528;52.124;5.196;2023-03-07T13:16:42;5.00;99.90
20735;DHT22;10528;52.124;5.196;2023-03-07T13:19:49;5.00;99.90
20735;DHT22;10528;52.124;5.196;2023-03-07T13:24:46;5.00;99.90
20735;DHT22;10528;52.124;5.196;2023-03-07T13:38:28;4.70;99.90
20735;DHT22;10528;52.124;5.196;2023-03-07T13:41:04;4.80;99.90
20735;DHT22;10528;52.124;5.196;2023-03-07T13:46:49;5.00;99.90
20735;DHT22;10528;52.124;5.196;2023-03-07T13:49:38;4.90;99.90
20735;DHT22;10528;52.124;5.196;2023-03-07T13:52:21;4.80;99.90
20735;DHT22;10528;52.124;5.196;2023-03-07T13:54:52;4.90;99.90
20735;DHT22;10528;52.124;5.196;2023-03-07T13:57:22;4.90;99.90
20735;DHT22;10528;52.124;5.196;2023-03-07T13:59:56;4.90;99.90
20735;DHT22;10528;52.124;5.196;2023-03-07T14:02:23;4.90;99.90
20735;DHT22;10528;52.124;5.196;2023-03-07T14:04:53;4.80;99.90
20735;DHT22;10528;52.124;5.196;2023-03-07T14:07:30;4.70;99.90
20735;DHT22;10528;52.124;5.196;2023-03-07T14:10:27;4.70;99.90
20735;DHT22;10528;52.124;5.196;2023-03-07T14:13:21;4.80;99.90
20735;DHT22;10528;52.124;5.196;2023-03-07T14:21:40;4.60;99.90
20735;DHT22;10528;52.124;5.196;2023-03-07T14:28:41;4.70;99.90
20735;DHT22;10528;52.124;5.196;2023-03-07T14:33:36;4.90;99.90
20735;DHT22;10528;52.124;5.196;2023-03-07T14:36:23;4.90;99.90
20735;DHT22;10528;52.124;5.196;2023-03-07T14:38:54;4.70;99.90
20735;DHT22;10528;52.124;5.196;2023-03-07T14:50:08;5.10;99.90
20735;DHT22;10528;52.124;5.196;2023-03-07T14:52:42;5.00;99.90
20735;DHT22;10528;52.124;5.196;2023-03-07T14:55:20;4.90;99.90
20735;DHT22;10528;52.124;5.196;2023-03-07T14:57:52;5.00;99.90
20735;DHT22;10528;52.124;5.196;2023-03-07T15:05:36;5.10;99.90
20735;DHT22;10528;52.124;5.196;2023-03-07T15:11:02;5.20;99.90
20735;DHT22;10528;52.124;5.196;2023-03-07T15:13:48;5.00;99.90
20735;DHT22;10528;52.124;5.196;2023-03-07T15:16:23;5.10;99.90
20735;DHT22;10528;52.124;5.196;2023-03-07T15:19:18;5.00;99.90
20735;DHT22;10528;52.124;5.196;2023-03-07T15:22:10;5.10;99.90
20735;DHT22;10528;52.124;5.196;2023-03-07T15:24:44;5.00;99.90
20735;DHT22;10528;52.124;5.196;2023-03-07T15:27:17;4.90;99.90
20735;DHT22;10528;52.124;5.196;2023-03-07T15:30:00;5.00;99.90
20735;DHT22;10528;52.124;5.196;2023-03-07T15:38:00;5.10;99.90
20735;DHT22;10528;52.124;5.196;2023-03-07T15:40:39;5.00;99.90
20735;DHT22;10528;52.124;5.196;2023-03-07T15:43:23;5.10;99.90
20735;DHT22;10528;52.124;5.196;2023-03-07T15:46:14;5.20;99.90
20735;DHT22;10528;52.124;5.196;2023-03-07T15:48:46;5.20;99.90
20735;DHT22;10528;52.124;5.196;2023-03-07T15:51:20;5.00;99.90
20735;DHT22;10528;52.124;5.196;2023-03-07T15:54:12;5.10;99.90
20735;DHT22;10528;52.124;5.196;2023-03-07T15:56:53;5.20;99.90
20735;DHT22;10528;52.124;5.196;2023-03-07T15:59:30;5.10;99.90
20735;DHT22;10528;52.124;5.196;2023-03-07T16:05:06;5.20;99.90
20735;DHT22;10528;52.124;5.196;2023-03-07T16:07:55;5.20;99.90
20735;DHT22;10528;52.124;5.196;2023-03-07T16:10:26;5.20;99.90
20735;DHT22;10528;52.124;5.196;2023-03-07T16:12:55;5.10;99.90
20735;DHT22;10528;52.124;5.196;2023-03-07T16:15:25;5.10;99.90
20735;DHT22;10528;52.124;5.196;2023-03-07T16:17:53;5.00;99.90
20735;DHT22;10528;52.124;5.196;2023-03-07T16:20:24;5.10;99.90
20735;DHT22;10528;52.124;5.196;2023-03-07T16:22:53;5.00;99.90
20735;DHT22;10528;52.124;5.196;2023-03-07T16:25:22;5.10;99.90
20735;DHT22;10528;52.124;5.196;2023-03-07T16:27:53;5.00;99.90
20735;DHT22;10528;52.124;5.196;2023-03-07T16:30:25;5.00;99.90
20735;DHT22;10528;52.124;5.196;2023-03-07T16:32:54;5.00;99.90
20735;DHT22;10528;52.124;5.196;2023-03-07T16:35:23;5.00;99.90
20735;DHT22;10528;52.124;5.196;2023-03-07T16:37:53;5.00;99.90
20735;DHT22;10528;52.124;5.196;2023-03-07T16:40:21;5.00;99.90
20735;DHT22;10528;52.124;5.196;2023-03-07T16:42:49;5.00;99.90
20735;DHT22;10528;52.124;5.196;2023-03-07T16:45:30;4.90;99.90
20735;DHT22;10528;52.124;5.196;2023-03-07T16:47:59;5.00;99.90
20735;DHT22;10528;52.124;5.196;2023-03-07T16:50:30;4.90;99.90
20735;DHT22;10528;52.124;5.196;2023-03-07T16:52:59;5.00;99.90
20735;DHT22;10528;52.124;5.196;2023-03-07T16:55:26;4.90;99.90
20735;DHT22;10528;52.124;5.196;2023-03-07T16:57:56;4.90;99.90
20735;DHT22;10528;52.124;5.196;2023-03-07T17:00:27;4.90;99.90
20735;DHT22;10528;52.124;5.196;2023-03-07T17:02:58;5.00;99.90
20735;DHT22;10528;52.124;5.196;2023-03-07T17:05:27;4.90;99.90
20735;DHT22;10528;52.124;5.196;2023-03-07T17:07:57;4.90;99.90
20735;DHT22;10528;52.124;5.196;2023-03-07T17:10:25;4.80;99.90
20735;DHT22;10528;52.124;5.196;2023-03-07T17:12:55;4.80;99.90
20735;DHT22;10528;52.124;5.196;2023-03-07T17:15:24;4.80;99.90
20735;DHT22;10528;52.124;5.196;2023-03-07T17:17:51;4.90;99.90
20735;DHT22;10528;52.124;5.196;2023-03-07T17:20:19;4.90;99.90
20735;DHT22;10528;52.124;5.196;2023-03-07T17:22:46;4.70;99.90
20735;DHT22;10528;52.124;5.196;2023-03-07T17:25:13;4.60;99.90
20735;DHT22;10528;52.124;5.196;2023-03-07T17:27:44;4.60;99.90
20735;DHT22;10528;52.124;5.196;2023-03-07T17:30:22;4.50;99.90
20735;DHT22;10528;52.124;5.196;2023-03-07T17:32:51;4.50;99.90
20735;DHT22;10528;52.124;5.196;2023-03-07T17:35:19;4.40;99.90
20735;DHT22;10528;52.124;5.196;2023-03-07T17:37:48;4.40;99.90
20735;DHT22;10528;52.124;5.196;2023-03-07T17:40:17;4.30;99.90
20735;DHT22;10528;52.124;5.196;2023-03-07T17:42:50;4.30;99.90
20735;DHT22;10528;52.124;5.196;2023-03-07T17:45:20;4.30;99.90
20735;DHT22;10528;52.124;5.196;2023-03-07T17:47:51;4.20;99.90
20735;DHT22;10528;52.124;5.196;2023-03-07T17:50:20;4.10;99.90
20735;DHT22;10528;52.124;5.196;2023-03-07T17:52:53;4.10;99.90
20735;DHT22;10528;52.124;5.196;2023-03-07T17:55:21;4.10;99.90
20735;DHT22;10528;52.124;5.196;2023-03-07T17:57:51;4.00;99.90
20735;DHT22;10528;52.124;5.196;2023-03-07T18:00:19;3.90;99.90
20735;DHT22;10528;52.124;5.196;2023-03-07T18:02:47;3.90;99.90
20735;DHT22;10528;52.124;5.196;2023-03-07T18:05:14;3.90;99.90
20735;DHT22;10528;52.124;5.196;2023-03-07T18:07:41;3.80;99.90
20735;DHT22;10528;52.124;5.196;2023-03-07T18:10:09;3.80;99.90
20735;DHT22;10528;52.124;5.196;2023-03-07T18:12:37;3.90;99.90
20735;DHT22;10528;52.124;5.196;2023-03-07T18:15:16;3.80;99.90
20735;DHT22;10528;52.124;5.196;2023-03-07T18:17:45;3.80;99.90
20735;DHT22;10528;52.124;5.196;2023-03-07T18:20:17;3.70;99.90
20735;DHT22;10528;52.124;5.196;2023-03-07T18:22:45;3.80;99.90
20735;DHT22;10528;52.124;5.196;2023-03-07T18:25:14;3.80;99.90
20735;DHT22;10528;52.124;5.196;2023-03-07T18:27:43;3.70;99.90